sensor_id;sensor_type;location;lat;lon;timestamp;P1;durP1;ratioP1;P2;durP2;ratioP2
75413;SDS011;64758;52.122;5.404;2023-07-29T00:00:05;2.78;;;0.90;;
75413;SDS011;64758;52.122;5.404;2023-07-29T00:02:33;2.58;;;0.90;;
75413;SDS011;64758;52.122;5.404;2023-07-29T00:04:59;3.03;;;0.83;;
75413;SDS011;64758;52.122;5.404;2023-07-29T00:07:26;1.50;;;0.65;;
75413;SDS011;64758;52.122;5.404;2023-07-29T00:09:53;1.20;;;0.80;;
75413;SDS011;64758;52.122;5.404;2023-07-29T00:12:19;2.22;;;0.80;;
75413;SDS011;64758;52.122;5.404;2023-07-29T00:14:46;1.15;;;0.68;;
75413;SDS011;64758;52.122;5.404;2023-07-29T00:17:12;1.40;;;0.63;;
75413;SDS011;64758;52.122;5.404;2023-07-29T00:19:39;1.48;;;0.60;;
75413;SDS011;64758;52.122;5.404;2023-07-29T00:22:05;2.65;;;0.70;;
75413;SDS011;64758;52.122;5.404;2023-07-29T00:24:34;2.03;;;0.77;;
75413;SDS011;64758;52.122;5.404;2023-07-29T00:27:01;1.25;;;0.60;;
75413;SDS011;64758;52.122;5.404;2023-07-29T00:29:27;1.90;;;0.70;;
75413;SDS011;64758;52.122;5.404;2023-07-29T00:31:54;2.80;;;0.57;;
75413;SDS011;64758;52.122;5.404;2023-07-29T00:34:20;1.23;;;0.75;;
75413;SDS011;64758;52.122;5.404;2023-07-29T00:36:47;3.13;;;0.60;;
75413;SDS011;64758;52.122;5.404;2023-07-29T00:39:13;3.60;;;0.70;;
75413;SDS011;64758;52.122;5.404;2023-07-29T00:41:40;1.90;;;0.60;;
75413;SDS011;64758;52.122;5.404;2023-07-29T00:44:06;2.40;;;0.93;;
75413;SDS011;64758;52.122;5.404;2023-07-29T00:46:34;2.88;;;0.73;;
75413;SDS011;64758;52.122;5.404;2023-07-29T00:49:02;1.30;;;0.57;;
75413;SDS011;64758;52.122;5.404;2023-07-29T00:51:29;2.03;;;0.70;;
75413;SDS011;64758;52.122;5.404;2023-07-29T00:53:55;1.70;;;0.60;;
75413;SDS011;64758;52.122;5.404;2023-07-29T00:56:22;2.53;;;0.70;;
75413;SDS011;64758;52.122;5.404;2023-07-29T00:58:49;1.95;;;0.50;;
75413;SDS011;64758;52.122;5.404;2023-07-29T01:01:17;2.50;;;0.50;;
75413;SDS011;64758;52.122;5.404;2023-07-29T01:03:44;2.35;;;0.52;;
75413;SDS011;64758;52.122;5.404;2023-07-29T01:06:13;2.30;;;0.70;;
75413;SDS011;64758;52.122;5.404;2023-07-29T01:17:46;0.98;;;0.40;;
75413;SDS011;64758;52.122;5.404;2023-07-29T01:20:16;0.70;;;0.30;;
75413;SDS011;64758;52.122;5.404;2023-07-29T01:22:46;1.17;;;0.63;;
75413;SDS011;64758;52.122;5.404;2023-07-29T01:25:14;1.83;;;0.63;;
75413;SDS011;64758;52.122;5.404;2023-07-29T01:27:44;3.10;;;0.75;;
75413;SDS011;64758;52.122;5.404;2023-07-29T01:30:12;3.38;;;0.73;;
75413;SDS011;64758;52.122;5.404;2023-07-29T01:37:58;1.45;;;0.80;;
75413;SDS011;64758;52.122;5.404;2023-07-29T01:40:31;2.38;;;0.70;;
75413;SDS011;64758;52.122;5.404;2023-07-29T01:42:59;1.88;;;0.98;;
75413;SDS011;64758;52.122;5.404;2023-07-29T01:45:26;2.63;;;1.00;;
75413;SDS011;64758;52.122;5.404;2023-07-29T01:47:52;2.15;;;1.60;;
75413;SDS011;64758;52.122;5.404;2023-07-29T01:50:19;3.78;;;1.05;;
75413;SDS011;64758;52.122;5.404;2023-07-29T01:52:46;2.38;;;0.85;;
75413;SDS011;64758;52.122;5.404;2023-07-29T01:55:12;5.05;;;1.10;;
75413;SDS011;64758;52.122;5.404;2023-07-29T01:57:39;2.50;;;1.00;;
75413;SDS011;64758;52.122;5.404;2023-07-29T02:00:06;1.83;;;0.90;;
75413;SDS011;64758;52.122;5.404;2023-07-29T02:02:33;1.90;;;0.88;;
75413;SDS011;64758;52.122;5.404;2023-07-29T02:04:59;1.80;;;0.98;;
75413;SDS011;64758;52.122;5.404;2023-07-29T02:07:26;2.75;;;1.42;;
75413;SDS011;64758;52.122;5.404;2023-07-29T02:09:53;3.63;;;1.53;;
75413;SDS011;64758;52.122;5.404;2023-07-29T02:12:20;2.30;;;1.10;;
75413;SDS011;64758;52.122;5.404;2023-07-29T02:14:46;2.72;;;1.30;;
75413;SDS011;64758;52.122;5.404;2023-07-29T02:17:13;3.60;;;0.88;;
75413;SDS011;64758;52.122;5.404;2023-07-29T02:19:39;2.47;;;1.42;;
75413;SDS011;64758;52.122;5.404;2023-07-29T02:22:06;3.27;;;1.00;;
75413;SDS011;64758;52.122;5.404;2023-07-29T02:24:32;2.20;;;1.15;;
75413;SDS011;64758;52.122;5.404;2023-07-29T02:26:59;4.28;;;1.40;;
75413;SDS011;64758;52.122;5.404;2023-07-29T02:29:25;5.40;;;1.33;;
75413;SDS011;64758;52.122;5.404;2023-07-29T02:31:52;5.90;;;2.22;;
75413;SDS011;64758;52.122;5.404;2023-07-29T02:34:18;5.83;;;2.03;;
75413;SDS011;64758;52.122;5.404;2023-07-29T02:36:45;3.13;;;1.52;;
75413;SDS011;64758;52.122;5.404;2023-07-29T02:39:11;4.53;;;2.00;;
75413;SDS011;64758;52.122;5.404;2023-07-29T02:41:38;6.70;;;2.35;;
75413;SDS011;64758;52.122;5.404;2023-07-29T02:44:05;3.88;;;2.42;;
75413;SDS011;64758;52.122;5.404;2023-07-29T02:46:31;4.67;;;2.20;;
75413;SDS011;64758;52.122;5.404;2023-07-29T02:48:58;3.53;;;2.60;;
75413;SDS011;64758;52.122;5.404;2023-07-29T02:51:25;7.63;;;2.92;;
75413;SDS011;64758;52.122;5.404;2023-07-29T02:53:51;4.95;;;2.65;;
75413;SDS011;64758;52.122;5.404;2023-07-29T02:56:18;5.47;;;2.78;;
75413;SDS011;64758;52.122;5.404;2023-07-29T02:58:45;4.60;;;2.00;;
75413;SDS011;64758;52.122;5.404;2023-07-29T03:01:11;10.25;;;3.00;;
75413;SDS011;64758;52.122;5.404;2023-07-29T03:03:38;9.43;;;3.30;;
75413;SDS011;64758;52.122;5.404;2023-07-29T03:06:07;6.35;;;3.08;;
75413;SDS011;64758;52.122;5.404;2023-07-29T03:08:35;3.88;;;2.35;;
75413;SDS011;64758;52.122;5.404;2023-07-29T03:11:09;3.87;;;2.37;;
75413;SDS011;64758;52.122;5.404;2023-07-29T03:13:37;3.88;;;2.20;;
75413;SDS011;64758;52.122;5.404;2023-07-29T03:16:10;3.90;;;2.92;;
75413;SDS011;64758;52.122;5.404;2023-07-29T03:18:42;6.63;;;2.78;;
75413;SDS011;64758;52.122;5.404;2023-07-29T03:21:09;4.20;;;2.42;;
75413;SDS011;64758;52.122;5.404;2023-07-29T03:23:37;5.10;;;1.93;;
75413;SDS011;64758;52.122;5.404;2023-07-29T03:26:04;5.68;;;3.10;;
75413;SDS011;64758;52.122;5.404;2023-07-29T03:28:40;6.97;;;2.55;;
75413;SDS011;64758;52.122;5.404;2023-07-29T03:31:08;9.95;;;2.67;;
75413;SDS011;64758;52.122;5.404;2023-07-29T03:33:34;4.63;;;2.30;;
75413;SDS011;64758;52.122;5.404;2023-07-29T03:36:01;6.50;;;2.90;;
75413;SDS011;64758;52.122;5.404;2023-07-29T03:38:28;5.60;;;2.60;;
75413;SDS011;64758;52.122;5.404;2023-07-29T03:40:54;2.78;;;2.00;;
75413;SDS011;64758;52.122;5.404;2023-07-29T03:43:21;5.63;;;2.55;;
75413;SDS011;64758;52.122;5.404;2023-07-29T03:45:47;4.53;;;2.72;;
75413;SDS011;64758;52.122;5.404;2023-07-29T03:48:14;4.83;;;2.30;;
75413;SDS011;64758;52.122;5.404;2023-07-29T03:50:41;8.75;;;2.88;;
75413;SDS011;64758;52.122;5.404;2023-07-29T03:53:07;4.25;;;2.78;;
75413;SDS011;64758;52.122;5.404;2023-07-29T03:55:37;5.22;;;2.65;;
75413;SDS011;64758;52.122;5.404;2023-07-29T03:58:03;4.53;;;2.50;;
75413;SDS011;64758;52.122;5.404;2023-07-29T04:00:30;3.77;;;2.40;;
75413;SDS011;64758;52.122;5.404;2023-07-29T04:02:57;3.85;;;2.28;;
75413;SDS011;64758;52.122;5.404;2023-07-29T04:05:23;3.22;;;2.40;;
75413;SDS011;64758;52.122;5.404;2023-07-29T04:07:50;5.95;;;2.30;;
75413;SDS011;64758;52.122;5.404;2023-07-29T04:10:17;5.40;;;1.92;;
75413;SDS011;64758;52.122;5.404;2023-07-29T04:12:43;5.07;;;2.20;;
75413;SDS011;64758;52.122;5.404;2023-07-29T04:15:10;4.07;;;2.05;;
75413;SDS011;64758;52.122;5.404;2023-07-29T04:17:36;3.30;;;1.63;;
75413;SDS011;64758;52.122;5.404;2023-07-29T04:20:03;5.50;;;1.80;;
75413;SDS011;64758;52.122;5.404;2023-07-29T04:22:30;3.85;;;1.52;;
75413;SDS011;64758;52.122;5.404;2023-07-29T04:24:57;3.03;;;1.60;;
75413;SDS011;64758;52.122;5.404;2023-07-29T04:27:23;4.30;;;1.30;;
75413;SDS011;64758;52.122;5.404;2023-07-29T04:29:51;4.45;;;1.40;;
75413;SDS011;64758;52.122;5.404;2023-07-29T04:32:17;3.72;;;1.65;;
75413;SDS011;64758;52.122;5.404;2023-07-29T04:34:44;2.83;;;1.08;;
75413;SDS011;64758;52.122;5.404;2023-07-29T04:37:10;2.63;;;1.03;;
75413;SDS011;64758;52.122;5.404;2023-07-29T04:39:37;4.13;;;1.38;;
75413;SDS011;64758;52.122;5.404;2023-07-29T04:42:04;3.78;;;1.40;;
75413;SDS011;64758;52.122;5.404;2023-07-29T04:44:30;3.88;;;1.65;;
75413;SDS011;64758;52.122;5.404;2023-07-29T04:46:57;4.47;;;1.25;;
75413;SDS011;64758;52.122;5.404;2023-07-29T04:49:23;3.63;;;1.23;;
75413;SDS011;64758;52.122;5.404;2023-07-29T04:51:50;3.35;;;1.30;;
75413;SDS011;64758;52.122;5.404;2023-07-29T04:54:16;2.70;;;1.05;;
75413;SDS011;64758;52.122;5.404;2023-07-29T04:56:43;2.92;;;1.40;;
75413;SDS011;64758;52.122;5.404;2023-07-29T04:59:10;1.80;;;1.08;;
75413;SDS011;64758;52.122;5.404;2023-07-29T05:01:39;1.90;;;1.27;;
75413;SDS011;64758;52.122;5.404;2023-07-29T05:04:05;2.28;;;1.15;;
75413;SDS011;64758;52.122;5.404;2023-07-29T05:06:32;2.58;;;1.00;;
75413;SDS011;64758;52.122;5.404;2023-07-29T05:09:11;3.53;;;1.20;;
75413;SDS011;64758;52.122;5.404;2023-07-29T05:11:42;4.68;;;1.23;;
75413;SDS011;64758;52.122;5.404;2023-07-29T05:14:12;4.53;;;1.70;;
75413;SDS011;64758;52.122;5.404;2023-07-29T05:16:39;5.22;;;1.45;;
75413;SDS011;64758;52.122;5.404;2023-07-29T05:19:06;2.92;;;1.23;;
75413;SDS011;64758;52.122;5.404;2023-07-29T05:21:32;3.17;;;1.05;;
75413;SDS011;64758;52.122;5.404;2023-07-29T05:23:59;4.18;;;1.50;;
75413;SDS011;64758;52.122;5.404;2023-07-29T05:26:26;3.07;;;1.30;;
75413;SDS011;64758;52.122;5.404;2023-07-29T05:28:52;3.28;;;1.08;;
75413;SDS011;64758;52.122;5.404;2023-07-29T05:31:19;3.40;;;1.35;;
75413;SDS011;64758;52.122;5.404;2023-07-29T05:33:46;3.30;;;1.35;;
75413;SDS011;64758;52.122;5.404;2023-07-29T05:36:12;3.20;;;1.27;;
75413;SDS011;64758;52.122;5.404;2023-07-29T05:38:39;2.73;;;1.63;;
75413;SDS011;64758;52.122;5.404;2023-07-29T05:41:05;3.30;;;1.65;;
75413;SDS011;64758;52.122;5.404;2023-07-29T05:43:32;3.47;;;1.70;;
75413;SDS011;64758;52.122;5.404;2023-07-29T05:45:58;4.57;;;2.10;;
75413;SDS011;64758;52.122;5.404;2023-07-29T05:48:25;5.53;;;1.80;;
75413;SDS011;64758;52.122;5.404;2023-07-29T05:50:51;2.87;;;1.70;;
75413;SDS011;64758;52.122;5.404;2023-07-29T05:53:18;3.47;;;1.73;;
75413;SDS011;64758;52.122;5.404;2023-07-29T05:55:44;2.53;;;1.70;;
75413;SDS011;64758;52.122;5.404;2023-07-29T05:58:11;6.18;;;1.50;;
75413;SDS011;64758;52.122;5.404;2023-07-29T06:00:37;2.85;;;1.58;;
75413;SDS011;64758;52.122;5.404;2023-07-29T06:03:04;5.10;;;2.20;;
75413;SDS011;64758;52.122;5.404;2023-07-29T06:05:31;3.40;;;1.90;;
75413;SDS011;64758;52.122;5.404;2023-07-29T06:07:57;5.50;;;2.00;;
75413;SDS011;64758;52.122;5.404;2023-07-29T06:10:24;5.10;;;2.20;;
75413;SDS011;64758;52.122;5.404;2023-07-29T06:12:50;4.78;;;1.88;;
75413;SDS011;64758;52.122;5.404;2023-07-29T06:15:17;3.63;;;1.93;;
75413;SDS011;64758;52.122;5.404;2023-07-29T06:17:44;4.75;;;2.13;;
75413;SDS011;64758;52.122;5.404;2023-07-29T06:20:10;4.78;;;2.15;;
75413;SDS011;64758;52.122;5.404;2023-07-29T06:22:37;5.30;;;2.78;;
75413;SDS011;64758;52.122;5.404;2023-07-29T06:25:04;3.13;;;2.03;;
75413;SDS011;64758;52.122;5.404;2023-07-29T06:27:30;3.80;;;1.90;;
75413;SDS011;64758;52.122;5.404;2023-07-29T06:29:57;4.55;;;2.28;;
75413;SDS011;64758;52.122;5.404;2023-07-29T06:32:23;5.53;;;2.95;;
75413;SDS011;64758;52.122;5.404;2023-07-29T06:34:50;4.65;;;2.25;;
75413;SDS011;64758;52.122;5.404;2023-07-29T06:37:18;5.13;;;2.60;;
75413;SDS011;64758;52.122;5.404;2023-07-29T06:39:44;4.57;;;2.50;;
75413;SDS011;64758;52.122;5.404;2023-07-29T06:42:11;5.78;;;2.67;;
75413;SDS011;64758;52.122;5.404;2023-07-29T06:44:39;6.15;;;3.10;;
75413;SDS011;64758;52.122;5.404;2023-07-29T06:47:06;5.22;;;2.58;;
75413;SDS011;64758;52.122;5.404;2023-07-29T06:49:33;4.25;;;2.30;;
75413;SDS011;64758;52.122;5.404;2023-07-29T06:52:00;3.87;;;2.47;;
75413;SDS011;64758;52.122;5.404;2023-07-29T06:54:27;5.07;;;3.53;;
75413;SDS011;64758;52.122;5.404;2023-07-29T06:56:53;4.80;;;2.60;;
75413;SDS011;64758;52.122;5.404;2023-07-29T06:59:20;5.28;;;3.67;;
75413;SDS011;64758;52.122;5.404;2023-07-29T07:01:47;7.53;;;3.55;;
75413;SDS011;64758;52.122;5.404;2023-07-29T07:04:13;5.93;;;3.67;;
75413;SDS011;64758;52.122;5.404;2023-07-29T07:06:40;5.82;;;3.00;;
75413;SDS011;64758;52.122;5.404;2023-07-29T07:09:06;5.93;;;3.70;;
75413;SDS011;64758;52.122;5.404;2023-07-29T07:11:33;5.90;;;3.53;;
75413;SDS011;64758;52.122;5.404;2023-07-29T07:14:00;5.13;;;3.42;;
75413;SDS011;64758;52.122;5.404;2023-07-29T07:16:26;5.23;;;2.63;;
75413;SDS011;64758;52.122;5.404;2023-07-29T07:18:56;5.93;;;3.50;;
75413;SDS011;64758;52.122;5.404;2023-07-29T07:21:23;4.15;;;2.80;;
75413;SDS011;64758;52.122;5.404;2023-07-29T07:23:50;4.22;;;3.00;;
75413;SDS011;64758;52.122;5.404;2023-07-29T07:26:16;3.85;;;2.72;;
75413;SDS011;64758;52.122;5.404;2023-07-29T07:28:43;5.27;;;2.93;;
75413;SDS011;64758;52.122;5.404;2023-07-29T07:31:10;5.60;;;2.97;;
75413;SDS011;64758;52.122;5.404;2023-07-29T07:33:37;4.30;;;3.17;;
75413;SDS011;64758;52.122;5.404;2023-07-29T07:36:04;5.15;;;3.10;;
75413;SDS011;64758;52.122;5.404;2023-07-29T07:38:30;4.90;;;3.28;;
75413;SDS011;64758;52.122;5.404;2023-07-29T07:40:57;4.03;;;3.03;;
75413;SDS011;64758;52.122;5.404;2023-07-29T07:43:24;3.78;;;2.92;;
75413;SDS011;64758;52.122;5.404;2023-07-29T07:45:51;5.38;;;3.80;;
75413;SDS011;64758;52.122;5.404;2023-07-29T07:48:23;7.60;;;3.65;;
75413;SDS011;64758;52.122;5.404;2023-07-29T07:50:50;4.60;;;3.50;;
75413;SDS011;64758;52.122;5.404;2023-07-29T07:53:17;5.07;;;3.57;;
75413;SDS011;64758;52.122;5.404;2023-07-29T07:55:43;5.72;;;3.78;;
75413;SDS011;64758;52.122;5.404;2023-07-29T07:58:10;4.22;;;2.72;;
75413;SDS011;64758;52.122;5.404;2023-07-29T08:00:36;5.13;;;3.50;;
75413;SDS011;64758;52.122;5.404;2023-07-29T08:03:03;4.43;;;3.13;;
75413;SDS011;64758;52.122;5.404;2023-07-29T08:05:30;3.43;;;3.13;;
75413;SDS011;64758;52.122;5.404;2023-07-29T08:07:56;5.80;;;3.60;;
75413;SDS011;64758;52.122;5.404;2023-07-29T08:10:23;3.60;;;3.00;;
75413;SDS011;64758;52.122;5.404;2023-07-29T08:12:50;3.88;;;3.00;;
75413;SDS011;64758;52.122;5.404;2023-07-29T08:15:17;4.28;;;2.70;;
75413;SDS011;64758;52.122;5.404;2023-07-29T08:17:43;3.17;;;2.57;;
75413;SDS011;64758;52.122;5.404;2023-07-29T08:20:12;4.25;;;3.42;;
75413;SDS011;64758;52.122;5.404;2023-07-29T08:22:39;3.40;;;2.50;;
75413;SDS011;64758;52.122;5.404;2023-07-29T08:25:05;3.70;;;2.42;;
75413;SDS011;64758;52.122;5.404;2023-07-29T08:27:33;2.78;;;2.38;;
75413;SDS011;64758;52.122;5.404;2023-07-29T08:30:00;2.97;;;2.40;;
75413;SDS011;64758;52.122;5.404;2023-07-29T08:32:27;5.20;;;2.20;;
75413;SDS011;64758;52.122;5.404;2023-07-29T08:34:54;3.60;;;2.63;;
75413;SDS011;64758;52.122;5.404;2023-07-29T08:37:20;4.03;;;2.30;;
75413;SDS011;64758;52.122;5.404;2023-07-29T08:39:47;2.97;;;2.70;;
75413;SDS011;64758;52.122;5.404;2023-07-29T08:42:14;2.90;;;2.53;;
75413;SDS011;64758;52.122;5.404;2023-07-29T08:44:45;3.50;;;2.33;;
75413;SDS011;64758;52.122;5.404;2023-07-29T08:47:16;3.10;;;2.10;;
75413;SDS011;64758;52.122;5.404;2023-07-29T08:49:43;3.28;;;1.90;;
75413;SDS011;64758;52.122;5.404;2023-07-29T08:52:11;2.90;;;2.55;;
75413;SDS011;64758;52.122;5.404;2023-07-29T08:54:40;3.97;;;1.80;;
75413;SDS011;64758;52.122;5.404;2023-07-29T08:57:07;2.90;;;2.00;;
75413;SDS011;64758;52.122;5.404;2023-07-29T08:59:33;3.60;;;1.85;;
75413;SDS011;64758;52.122;5.404;2023-07-29T09:02:00;2.95;;;1.80;;
75413;SDS011;64758;52.122;5.404;2023-07-29T09:04:27;2.10;;;1.67;;
75413;SDS011;64758;52.122;5.404;2023-07-29T09:06:55;3.60;;;1.90;;
75413;SDS011;64758;52.122;5.404;2023-07-29T09:09:22;2.25;;;1.80;;
75413;SDS011;64758;52.122;5.404;2023-07-29T09:11:49;2.33;;;2.13;;
75413;SDS011;64758;52.122;5.404;2023-07-29T09:14:16;4.32;;;2.20;;
75413;SDS011;64758;52.122;5.404;2023-07-29T09:16:43;3.85;;;2.60;;
75413;SDS011;64758;52.122;5.404;2023-07-29T09:19:10;3.93;;;2.97;;
75413;SDS011;64758;52.122;5.404;2023-07-29T09:21:39;4.22;;;2.70;;
75413;SDS011;64758;52.122;5.404;2023-07-29T09:24:06;3.00;;;2.67;;
75413;SDS011;64758;52.122;5.404;2023-07-29T09:26:34;3.22;;;2.92;;
75413;SDS011;64758;52.122;5.404;2023-07-29T09:29:02;4.85;;;2.50;;
75413;SDS011;64758;52.122;5.404;2023-07-29T09:31:29;3.17;;;2.67;;
75413;SDS011;64758;52.122;5.404;2023-07-29T09:33:56;3.65;;;2.50;;
75413;SDS011;64758;52.122;5.404;2023-07-29T09:36:31;6.43;;;3.00;;
75413;SDS011;64758;52.122;5.404;2023-07-29T09:38:59;3.60;;;2.50;;
75413;SDS011;64758;52.122;5.404;2023-07-29T09:41:27;3.30;;;2.40;;
75413;SDS011;64758;52.122;5.404;2023-07-29T09:43:55;3.43;;;3.03;;
75413;SDS011;64758;52.122;5.404;2023-07-29T09:46:24;2.65;;;2.45;;
75413;SDS011;64758;52.122;5.404;2023-07-29T09:48:53;2.85;;;2.42;;
75413;SDS011;64758;52.122;5.404;2023-07-29T09:51:23;2.95;;;2.63;;
75413;SDS011;64758;52.122;5.404;2023-07-29T09:53:50;2.90;;;2.70;;
75413;SDS011;64758;52.122;5.404;2023-07-29T09:56:24;3.20;;;2.90;;
75413;SDS011;64758;52.122;5.404;2023-07-29T09:58:52;4.20;;;2.55;;
75413;SDS011;64758;52.122;5.404;2023-07-29T10:01:21;4.05;;;2.85;;
75413;SDS011;64758;52.122;5.404;2023-07-29T10:03:48;6.30;;;3.17;;
75413;SDS011;64758;52.122;5.404;2023-07-29T10:06:15;5.88;;;3.80;;
75413;SDS011;64758;52.122;5.404;2023-07-29T10:08:43;4.57;;;3.87;;
75413;SDS011;64758;52.122;5.404;2023-07-29T10:11:11;5.20;;;4.45;;
75413;SDS011;64758;52.122;5.404;2023-07-29T10:13:38;4.93;;;4.53;;
75413;SDS011;64758;52.122;5.404;2023-07-29T10:16:05;5.35;;;4.53;;
75413;SDS011;64758;52.122;5.404;2023-07-29T10:18:32;4.90;;;4.38;;
75413;SDS011;64758;52.122;5.404;2023-07-29T10:21:00;5.87;;;4.40;;
75413;SDS011;64758;52.122;5.404;2023-07-29T10:23:28;5.25;;;4.75;;
75413;SDS011;64758;52.122;5.404;2023-07-29T10:26:06;8.20;;;4.70;;
75413;SDS011;64758;52.122;5.404;2023-07-29T10:28:38;5.72;;;4.63;;
75413;SDS011;64758;52.122;5.404;2023-07-29T10:31:07;5.78;;;4.80;;
75413;SDS011;64758;52.122;5.404;2023-07-29T10:33:33;5.47;;;4.60;;
75413;SDS011;64758;52.122;5.404;2023-07-29T10:36:01;5.35;;;4.70;;
75413;SDS011;64758;52.122;5.404;2023-07-29T10:38:28;5.22;;;4.72;;
75413;SDS011;64758;52.122;5.404;2023-07-29T10:40:56;5.72;;;4.75;;
75413;SDS011;64758;52.122;5.404;2023-07-29T10:43:31;5.25;;;4.85;;
75413;SDS011;64758;52.122;5.404;2023-07-29T10:46:14;4.93;;;4.53;;
75413;SDS011;64758;52.122;5.404;2023-07-29T10:56:27;5.35;;;4.85;;
75413;SDS011;64758;52.122;5.404;2023-07-29T10:58:55;4.67;;;4.23;;
75413;SDS011;64758;52.122;5.404;2023-07-29T11:01:30;5.72;;;4.18;;
75413;SDS011;64758;52.122;5.404;2023-07-29T11:04:45;3.22;;;2.92;;
75413;SDS011;64758;52.122;5.404;2023-07-29T11:15:15;2.35;;;1.65;;
75413;SDS011;64758;52.122;5.404;2023-07-29T11:17:46;2.90;;;1.45;;
75413;SDS011;64758;52.122;5.404;2023-07-29T11:20:14;2.63;;;1.27;;
75413;SDS011;64758;52.122;5.404;2023-07-29T11:22:41;1.52;;;1.00;;
75413;SDS011;64758;52.122;5.404;2023-07-29T11:25:09;1.70;;;0.90;;
75413;SDS011;64758;52.122;5.404;2023-07-29T11:27:37;2.33;;;1.00;;
75413;SDS011;64758;52.122;5.404;2023-07-29T11:30:05;1.98;;;0.80;;
75413;SDS011;64758;52.122;5.404;2023-07-29T11:32:37;1.70;;;0.93;;
75413;SDS011;64758;52.122;5.404;2023-07-29T11:35:08;2.85;;;1.20;;
75413;SDS011;64758;52.122;5.404;2023-07-29T11:37:41;1.10;;;0.60;;
75413;SDS011;64758;52.122;5.404;2023-07-29T11:40:12;2.30;;;0.80;;
75413;SDS011;64758;52.122;5.404;2023-07-29T11:42:41;2.95;;;1.02;;
75413;SDS011;64758;52.122;5.404;2023-07-29T11:45:07;1.95;;;0.80;;
75413;SDS011;64758;52.122;5.404;2023-07-29T11:47:35;2.53;;;0.80;;
75413;SDS011;64758;52.122;5.404;2023-07-29T11:50:03;1.50;;;0.63;;
75413;SDS011;64758;52.122;5.404;2023-07-29T11:52:39;2.03;;;0.70;;
75413;SDS011;64758;52.122;5.404;2023-07-29T11:55:11;1.55;;;0.85;;
75413;SDS011;64758;52.122;5.404;2023-07-29T11:57:38;2.10;;;0.93;;
75413;SDS011;64758;52.122;5.404;2023-07-29T12:00:06;1.40;;;0.70;;
75413;SDS011;64758;52.122;5.404;2023-07-29T12:02:36;2.23;;;0.90;;
75413;SDS011;64758;52.122;5.404;2023-07-29T12:05:05;1.40;;;1.20;;
75413;SDS011;64758;52.122;5.404;2023-07-29T12:07:32;1.77;;;1.08;;
75413;SDS011;64758;52.122;5.404;2023-07-29T12:10:02;1.60;;;1.02;;
75413;SDS011;64758;52.122;5.404;2023-07-29T12:12:29;2.13;;;1.15;;
75413;SDS011;64758;52.122;5.404;2023-07-29T12:14:56;2.20;;;1.27;;
75413;SDS011;64758;52.122;5.404;2023-07-29T12:17:23;1.90;;;1.30;;
75413;SDS011;64758;52.122;5.404;2023-07-29T12:19:53;1.08;;;0.85;;
75413;SDS011;64758;52.122;5.404;2023-07-29T12:22:21;2.15;;;1.17;;
75413;SDS011;64758;52.122;5.404;2023-07-29T12:24:48;1.45;;;1.10;;
75413;SDS011;64758;52.122;5.404;2023-07-29T12:27:18;3.00;;;0.90;;
75413;SDS011;64758;52.122;5.404;2023-07-29T12:29:48;1.63;;;1.20;;
75413;SDS011;64758;52.122;5.404;2023-07-29T12:32:18;2.85;;;1.20;;
75413;SDS011;64758;52.122;5.404;2023-07-29T12:34:45;2.65;;;1.10;;
75413;SDS011;64758;52.122;5.404;2023-07-29T12:37:11;1.60;;;1.00;;
75413;SDS011;64758;52.122;5.404;2023-07-29T12:39:41;4.83;;;1.20;;
75413;SDS011;64758;52.122;5.404;2023-07-29T12:42:08;2.00;;;1.02;;
75413;SDS011;64758;52.122;5.404;2023-07-29T12:44:35;2.13;;;1.27;;
75413;SDS011;64758;52.122;5.404;2023-07-29T12:47:04;2.58;;;1.00;;
75413;SDS011;64758;52.122;5.404;2023-07-29T12:49:32;1.05;;;0.80;;
75413;SDS011;64758;52.122;5.404;2023-07-29T12:51:58;3.77;;;1.10;;
75413;SDS011;64758;52.122;5.404;2023-07-29T12:54:26;1.40;;;0.95;;
75413;SDS011;64758;52.122;5.404;2023-07-29T12:56:53;2.25;;;1.00;;
75413;SDS011;64758;52.122;5.404;2023-07-29T12:59:19;2.22;;;1.10;;
75413;SDS011;64758;52.122;5.404;2023-07-29T13:01:46;1.75;;;0.80;;
75413;SDS011;64758;52.122;5.404;2023-07-29T13:04:12;1.40;;;1.10;;
75413;SDS011;64758;52.122;5.404;2023-07-29T13:06:39;1.55;;;1.05;;
75413;SDS011;64758;52.122;5.404;2023-07-29T13:09:06;2.05;;;1.20;;
75413;SDS011;64758;52.122;5.404;2023-07-29T13:11:33;1.85;;;1.13;;
75413;SDS011;64758;52.122;5.404;2023-07-29T13:14:00;1.10;;;0.90;;
75413;SDS011;64758;52.122;5.404;2023-07-29T13:16:30;1.00;;;0.80;;
75413;SDS011;64758;52.122;5.404;2023-07-29T13:18:56;1.30;;;0.90;;
75413;SDS011;64758;52.122;5.404;2023-07-29T13:21:23;1.98;;;1.00;;
75413;SDS011;64758;52.122;5.404;2023-07-29T13:23:50;1.75;;;0.82;;
75413;SDS011;64758;52.122;5.404;2023-07-29T13:26:17;1.73;;;0.80;;
75413;SDS011;64758;52.122;5.404;2023-07-29T13:28:44;2.10;;;0.90;;
75413;SDS011;64758;52.122;5.404;2023-07-29T13:31:10;2.05;;;0.82;;
75413;SDS011;64758;52.122;5.404;2023-07-29T13:33:37;1.77;;;0.93;;
75413;SDS011;64758;52.122;5.404;2023-07-29T13:36:04;1.48;;;0.70;;
75413;SDS011;64758;52.122;5.404;2023-07-29T13:38:31;1.05;;;0.70;;
75413;SDS011;64758;52.122;5.404;2023-07-29T13:40:58;2.03;;;0.67;;
75413;SDS011;64758;52.122;5.404;2023-07-29T13:43:25;1.80;;;1.05;;
75413;SDS011;64758;52.122;5.404;2023-07-29T13:45:51;2.05;;;0.60;;
75413;SDS011;64758;52.122;5.404;2023-07-29T13:48:18;3.63;;;1.15;;
75413;SDS011;64758;52.122;5.404;2023-07-29T13:50:45;1.35;;;1.25;;
75413;SDS011;64758;52.122;5.404;2023-07-29T13:53:12;2.23;;;1.10;;
75413;SDS011;64758;52.122;5.404;2023-07-29T13:55:38;1.73;;;1.13;;
75413;SDS011;64758;52.122;5.404;2023-07-29T13:58:05;2.08;;;0.95;;
75413;SDS011;64758;52.122;5.404;2023-07-29T14:00:31;2.10;;;0.95;;
75413;SDS011;64758;52.122;5.404;2023-07-29T14:02:59;1.58;;;1.23;;
75413;SDS011;64758;52.122;5.404;2023-07-29T14:05:25;2.10;;;1.00;;
75413;SDS011;64758;52.122;5.404;2023-07-29T14:07:52;2.50;;;1.10;;
75413;SDS011;64758;52.122;5.404;2023-07-29T14:10:18;2.08;;;1.00;;
75413;SDS011;64758;52.122;5.404;2023-07-29T14:12:45;1.38;;;0.98;;
75413;SDS011;64758;52.122;5.404;2023-07-29T14:15:11;1.38;;;1.02;;
75413;SDS011;64758;52.122;5.404;2023-07-29T14:17:38;2.53;;;1.30;;
75413;SDS011;64758;52.122;5.404;2023-07-29T14:20:05;1.33;;;1.00;;
75413;SDS011;64758;52.122;5.404;2023-07-29T14:22:32;1.33;;;0.65;;
75413;SDS011;64758;52.122;5.404;2023-07-29T14:24:58;2.83;;;1.00;;
75413;SDS011;64758;52.122;5.404;2023-07-29T14:27:26;1.35;;;1.00;;
75413;SDS011;64758;52.122;5.404;2023-07-29T14:29:53;1.60;;;0.90;;
75413;SDS011;64758;52.122;5.404;2023-07-29T14:32:19;2.25;;;1.00;;
75413;SDS011;64758;52.122;5.404;2023-07-29T14:34:49;1.50;;;1.02;;
75413;SDS011;64758;52.122;5.404;2023-07-29T14:37:16;2.05;;;1.08;;
75413;SDS011;64758;52.122;5.404;2023-07-29T14:39:42;1.95;;;1.10;;
75413;SDS011;64758;52.122;5.404;2023-07-29T14:42:09;3.97;;;1.27;;
75413;SDS011;64758;52.122;5.404;2023-07-29T14:44:35;1.38;;;1.00;;
75413;SDS011;64758;52.122;5.404;2023-07-29T14:47:02;1.13;;;0.60;;
75413;SDS011;64758;52.122;5.404;2023-07-29T14:49:29;1.55;;;1.00;;
75413;SDS011;64758;52.122;5.404;2023-07-29T14:51:55;2.10;;;0.60;;
75413;SDS011;64758;52.122;5.404;2023-07-29T14:54:22;1.27;;;0.80;;
75413;SDS011;64758;52.122;5.404;2023-07-29T14:56:48;1.50;;;0.65;;
75413;SDS011;64758;52.122;5.404;2023-07-29T14:59:15;1.17;;;0.80;;
75413;SDS011;64758;52.122;5.404;2023-07-29T15:01:41;1.60;;;0.80;;
75413;SDS011;64758;52.122;5.404;2023-07-29T15:04:08;0.93;;;0.65;;
75413;SDS011;64758;52.122;5.404;2023-07-29T15:06:34;1.43;;;0.77;;
75413;SDS011;64758;52.122;5.404;2023-07-29T15:09:01;1.75;;;0.68;;
75413;SDS011;64758;52.122;5.404;2023-07-29T15:11:29;1.70;;;0.60;;
75413;SDS011;64758;52.122;5.404;2023-07-29T15:13:55;2.50;;;0.60;;
75413;SDS011;64758;52.122;5.404;2023-07-29T15:16:23;1.02;;;0.57;;
75413;SDS011;64758;52.122;5.404;2023-07-29T15:18:51;1.20;;;0.60;;